Time;durP1;ratioP1;P1;durP2;ratioP2;P2;SDS_P1;SDS_P2;PMS_P1;PMS_P2;Temp;Humidity;BMP_temperature;BMP_pressure;BME280_temperature;BME280_humidity;BME280_pressure;Samples;Min_cycle;Max_cycle;Signal;HPM_P1;HPM_P2
2022/06/02 00:02:56;;;;;;;12.70;10.20;;;18.90;99.90;;;;;;5063956;28;20025;-77
2022/06/02 00:05:50;;;;;;;15.27;10.13;;;18.70;99.90;;;;;;5068537;28;20115;-76
2022/06/02 00:08:32;;;;;;;14.03;10.33;;;18.70;99.90;;;;;;5066082;28;20055;-76
2022/06/02 00:11:00;;;;;;;13.15;10.60;;;18.60;99.90;;;;;;5068096;28;20063;-76
2022/06/02 00:13:48;;;;;;;13.48;10.68;;;18.60;99.90;;;;;;5066310;28;20039;-76
2022/06/02 00:16:24;;;;;;;16.60;10.43;;;18.50;99.90;;;;;;5067149;28;20130;-76
2022/06/02 00:18:56;;;;;;;14.18;10.52;;;18.60;99.90;;;;;;5060392;28;20025;-76
2022/06/02 00:21:38;;;;;;;15.52;10.10;;;18.70;99.90;;;;;;5067092;28;20032;-76
2022/06/02 00:24:33;;;;;;;14.55;9.70;;;18.80;99.90;;;;;;5062050;28;20104;-76
2022/06/02 00:27:17;;;;;;;15.45;10.35;;;18.80;99.90;;;;;;5062661;28;20025;-76
2022/06/02 00:29:58;;;;;;;16.42;11.90;;;18.60;99.90;;;;;;5066406;28;20779;-76
2022/06/02 00:32:32;;;;;;;17.63;11.00;;;18.80;99.90;;;;;;5066500;28;20041;-76
2022/06/02 00:35:33;;;;;;;;;;;18.90;99.90;;;;;;5065593;28;20082;-76
2022/06/02 00:38:22;;;;;;;16.65;10.35;;;18.80;99.90;;;;;;5044995;28;19908;-76
2022/06/02 00:40:48;;;;;;;11.38;9.55;;;18.50;99.90;;;;;;5064170;28;20051;-77
2022/06/02 00:43:22;;;;;;;12.45;9.50;;;18.50;99.90;;;;;;5063963;28;20032;-76
2022/06/02 00:45:58;;;;;;;11.88;9.48;;;18.50;99.90;;;;;;5064018;28;20394;-76
2022/06/02 00:48:47;;;;;;;14.98;10.25;;;18.50;99.90;;;;;;5070211;28;20043;-76
2022/06/02 00:51:42;;;;;;;17.35;12.43;;;18.50;99.90;;;;;;5057257;28;20258;-76
2022/06/02 00:57:32;;;;;;;12.45;9.75;;;18.80;99.90;;;;;;5063033;28;20043;-76
2022/06/02 01:00:17;;;;;;;12.65;8.70;;;18.60;99.90;;;;;;5066956;28;20051;-76
2022/06/02 01:02:56;;;;;;;12.45;9.57;;;18.50;99.90;;;;;;5066359;28;20037;-76
2022/06/02 01:05:47;;;;;;;13.77;9.73;;;18.40;99.90;;;;;;5065429;28;20032;-76
2022/06/02 01:08:23;;;;;;;15.55;9.98;;;18.40;99.90;;;;;;5066893;28;20025;-76
2022/06/02 01:11:09;;;;;;;12.30;9.52;;;18.30;99.90;;;;;;5068667;28;20025;-76
2022/06/02 01:13:43;;;;;;;13.82;9.80;;;18.00;99.90;;;;;;5063844;28;20588;-76
2022/06/02 01:16:31;;;;;;;11.70;9.98;;;17.90;99.90;;;;;;5063187;28;20024;-76
2022/06/02 01:19:23;;;;;;;15.90;11.02;;;17.80;99.90;;;;;;5069188;28;20120;-76
2022/06/02 01:21:57;;;;;;;15.75;11.13;;;17.80;99.90;;;;;;5071167;28;20033;-76
2022/06/02 01:24:49;;;;;;;18.85;12.40;;;17.80;99.90;;;;;;5072812;28;20043;-76
2022/06/02 01:27:26;;;;;;;16.10;10.93;;;17.90;99.90;;;;;;5069963;28;20115;-76
2022/06/02 01:30:08;;;;;;;17.33;11.43;;;17.90;99.90;;;;;;5068376;28;20127;-76
2022/06/02 01:32:59;;;;;;;17.08;11.40;;;17.90;99.90;;;;;;5070603;28;20021;-76
2022/06/02 01:36:04;;;;;;;16.95;11.32;;;17.90;99.90;;;;;;5067593;28;20123;-76
2022/06/02 01:38:35;;;;;;;15.57;11.20;;;17.90;99.90;;;;;;5069764;28;20032;-76
2022/06/02 01:41:10;;;;;;;18.83;12.43;;;17.90;99.90;;;;;;5070998;28;20036;-76
2022/06/02 01:44:02;;;;;;;16.00;12.23;;;17.90;99.90;;;;;;5065311;28;20108;-76
2022/06/02 01:46:36;;;;;;;15.95;12.30;;;17.90;99.90;;;;;;5061113;28;20059;-76
2022/06/02 01:49:09;;;;;;;17.67;12.20;;;17.90;99.90;;;;;;5071365;28;20375;-77
2022/06/02 01:51:52;;;;;;;15.87;11.47;;;18.10;99.90;;;;;;5071516;28;20039;-76
2022/06/02 01:54:32;;;;;;;14.88;10.43;;;18.10;99.90;;;;;;5072143;28;20287;-77
2022/06/02 01:57:00;;;;;;;16.05;11.07;;;18.30;99.90;;;;;;5071243;28;20024;-77
2022/06/02 01:59:36;;;;;;;13.75;11.27;;;18.30;99.90;;;;;;5065779;28;20072;-76
2022/06/02 02:02:23;;;;;;;14.07;10.13;;;18.20;99.90;;;;;;5071102;28;20103;-76
2022/06/02 02:05:22;;;;;;;14.93;11.23;;;18.10;99.90;;;;;;5070951;28;20036;-76
2022/06/02 02:08:03;;;;;;;14.32;11.75;;;18.30;99.90;;;;;;5070017;28;20028;-76
2022/06/02 02:10:53;;;;;;;17.60;13.07;;;18.30;99.90;;;;;;5072815;28;20115;-77
2022/06/02 02:13:29;;;;;;;15.18;11.32;;;18.30;99.90;;;;;;5067599;28;20025;-76
2022/06/02 02:16:13;;;;;;;12.48;10.20;;;18.10;99.90;;;;;;5065324;28;20074;-76
2022/06/02 02:18:52;;;;;;;15.57;12.13;;;17.80;99.90;;;;;;5069186;28;20036;-76
2022/06/02 02:21:27;;;;;;;16.48;11.80;;;17.80;99.90;;;;;;5069381;28;20031;-76
2022/06/02 02:23:52;;;;;;;15.23;11.80;;;17.50;99.90;;;;;;5070693;28;20143;-76
2022/06/02 02:26:30;;;;;;;16.30;10.90;;;17.60;99.90;;;;;;5069478;28;20498;-77
2022/06/02 02:29:07;;;;;;;15.35;10.90;;;17.60;99.90;;;;;;5063045;28;20406;-76
2022/06/02 02:31:56;;;;;;;13.98;11.43;;;17.50;99.90;;;;;;5068188;28;20064;-77
2022/06/02 02:34:34;;;;;;;15.40;10.70;;;17.50;99.90;;;;;;5066935;28;20036;-76
2022/06/02 02:37:52;;;;;;;18.25;12.95;;;17.50;99.90;;;;;;5068815;28;20504;-77
2022/06/02 02:40:38;;;;;;;16.73;11.55;;;17.40;99.90;;;;;;5036972;28;20047;-76
2022/06/02 02:43:12;;;;;;;16.00;11.93;;;17.60;99.90;;;;;;5069756;28;20139;-76
2022/06/02 02:45:53;;;;;;;16.48;12.50;;;17.70;99.90;;;;;;5063949;28;20036;-76
2022/06/02 02:48:53;;;;;;;22.98;13.50;;;17.70;99.90;;;;;;5071031;28;20101;-76
2022/06/02 02:51:30;;;;;;;16.85;14.10;;;17.80;99.90;;;;;;5068844;28;20033;-76
2022/06/02 02:54:08;;;;;;;22.83;14.07;;;17.60;99.90;;;;;;5067199;28;20021;-76
2022/06/02 02:56:51;;;;;;;17.45;12.35;;;17.50;99.90;;;;;;5069442;28;20093;-76
2022/06/02 02:59:39;;;;;;;14.63;12.32;;;17.60;99.90;;;;;;5062915;28;20041;-76
2022/06/02 03:02:13;;;;;;;16.30;11.68;;;17.40;99.90;;;;;;5065372;28;20155;-75
2022/06/02 03:04:51;;;;;;;17.77;12.25;;;17.40;99.90;;;;;;5063836;28;20032;-75
2022/06/02 03:07:17;;;;;;;15.38;11.65;;;17.40;99.90;;;;;;5064814;28;20021;-75
2022/06/02 03:09:48;;;;;;;15.90;11.82;;;17.30;99.90;;;;;;5066387;28;20036;-76
2022/06/02 03:12:40;;;;;;;16.52;13.13;;;17.10;99.90;;;;;;5058998;28;20051;-75
2022/06/02 03:15:30;;;;;;;16.20;13.40;;;17.20;99.90;;;;;;5062265;28;20103;-75
2022/06/02 03:18:24;;;;;;;16.52;12.30;;;17.10;99.90;;;;;;5059997;28;20470;-75
2022/06/02 03:21:19;;;;;;;18.57;12.03;;;17.30;99.90;;;;;;5057262;28;20106;-75
2022/06/02 03:24:19;;;;;;;16.70;12.98;;;17.40;99.90;;;;;;5064222;28;20028;-75
2022/06/02 03:27:28;;;;;;;17.38;12.05;;;17.60;99.90;;;;;;5063512;28;20127;-76
2022/06/02 03:30:01;;;;;;;18.63;12.95;;;17.20;99.90;;;;;;4999948;28;20061;-75
2022/06/02 03:32:57;;;;;;;14.68;12.23;;;17.20;99.90;;;;;;4997973;28;20073;-75
2022/06/02 03:35:46;;;;;;;17.65;12.23;;;17.20;99.90;;;;;;5045092;28;20498;-75
2022/06/02 03:38:42;;;;;;;17.58;12.38;;;17.20;99.90;;;;;;5064011;28;20120;-75
2022/06/02 03:41:17;;;;;;;16.13;12.15;;;17.10;99.90;;;;;;5064326;28;20040;-75
2022/06/02 03:43:46;;;;;;;19.15;12.98;;;16.90;99.90;;;;;;5060927;28;20062;-75
2022/06/02 03:47:01;;;;;;;19.83;11.90;;;17.00;99.90;;;;;;5066620;28;20036;-75
2022/06/02 03:49:45;;;;;;;;;;;17.10;99.90;;;;;;5062554;28;20042;-75
2022/06/02 03:52:43;;;;;;;21.80;12.77;;;17.10;99.90;;;;;;5065746;28;19916;-75
2022/06/02 03:55:19;;;;;;;14.48;11.73;;;17.10;99.90;;;;;;5054495;28;20123;-75
2022/06/02 03:57:56;;;;;;;18.02;13.55;;;17.10;99.90;;;;;;5054955;28;20060;-76
2022/06/02 04:00:26;;;;;;;17.70;12.90;;;17.20;99.90;;;;;;5058211;28;20135;-75
2022/06/02 04:02:52;;;;;;;17.50;12.07;;;17.30;99.90;;;;;;5059573;28;20036;-75
2022/06/02 04:05:32;;;;;;;15.85;13.25;;;17.40;99.90;;;;;;5060757;28;20020;-75
2022/06/02 04:07:58;;;;;;;17.10;12.07;;;17.60;99.90;;;;;;5061267;28;20020;-75
2022/06/02 04:10:44;;;;;;;19.20;12.43;;;17.40;99.90;;;;;;5059414;28;20474;-75
2022/06/02 04:13:37;;;;;;;17.08;12.38;;;17.20;99.90;;;;;;5060567;28;20032;-76
2022/06/02 04:16:39;;;;;;;19.08;12.07;;;17.30;99.90;;;;;;5058861;28;20035;-76
2022/06/02 04:22:13;;;;;;;16.40;12.73;;;17.30;99.90;;;;;;5056230;28;20120;-76
2022/06/02 04:25:08;;;;;;;16.88;12.60;;;17.30;99.90;;;;;;5059575;28;20931;-76
2022/06/02 04:27:56;;;;;;;16.52;13.10;;;17.30;99.90;;;;;;5056800;28;20064;-76
2022/06/02 04:31:01;;;;;;;15.77;12.32;;;17.30;99.90;;;;;;5054451;28;20044;-76
2022/06/02 04:33:33;;;;;;;15.93;12.48;;;17.20;99.90;;;;;;5054567;28;20053;-76
2022/06/02 04:36:27;;;;;;;16.60;12.77;;;17.20;99.90;;;;;;5055676;28;20506;-76
2022/06/02 04:39:02;;;;;;;17.58;13.00;;;17.20;99.90;;;;;;5060319;28;20070;-77
2022/06/02 04:41:43;;;;;;;22.20;13.32;;;17.30;99.90;;;;;;5058904;28;20602;-76
2022/06/02 04:44:21;;;;;;;19.05;12.52;;;17.30;99.90;;;;;;5059529;28;20029;-76
2022/06/02 04:47:27;;;;;;;19.02;12.73;;;17.30;99.90;;;;;;5058823;28;20027;-76
2022/06/02 04:50:07;;;;;;;19.40;11.95;;;17.40;99.90;;;;;;5060468;28;20509;-76
2022/06/02 04:52:58;;;;;;;18.58;12.50;;;17.50;99.90;;;;;;5064735;28;20037;-76
2022/06/02 04:55:36;;;;;;;16.55;12.20;;;17.60;99.90;;;;;;5060740;28;20540;-76
2022/06/02 04:58:19;;;;;;;15.05;12.57;;;17.80;99.90;;;;;;5054756;28;20036;-76
2022/06/02 05:01:04;;;;;;;20.15;12.93;;;17.90;99.90;;;;;;5060400;28;20048;-76
2022/06/02 05:03:54;;;;;;;17.73;13.65;;;18.10;99.90;;;;;;5061548;28;20056;-76
2022/06/02 05:06:47;;;;;;;16.80;13.25;;;18.10;99.90;;;;;;5072985;28;20458;-77
2022/06/02 05:09:51;;;;;;;14.93;11.27;;;18.20;99.90;;;;;;5059583;28;20067;-76
2022/06/02 05:12:30;;;;;;;15.73;11.65;;;18.20;99.90;;;;;;5058623;28;20088;-76
2022/06/02 05:15:13;;;;;;;16.25;11.02;;;18.20;99.90;;;;;;5062980;28;20053;-76
2022/06/02 05:17:51;;;;;;;14.45;11.75;;;18.20;99.90;;;;;;5063514;28;20055;-76
2022/06/02 05:20:51;;;;;;;13.65;10.93;;;18.30;99.90;;;;;;5065489;28;20186;-76
2022/06/02 05:23:49;;;;;;;16.70;11.55;;;18.40;99.90;;;;;;5063074;28;20448;-76
2022/06/02 05:26:33;;;;;;;15.52;11.25;;;18.30;99.90;;;;;;5061509;28;20485;-77
2022/06/02 05:29:17;;;;;;;15.13;12.38;;;18.10;99.90;;;;;;5059200;28;20044;-77
2022/06/02 05:32:01;;;;;;;15.63;12.85;;;18.00;99.90;;;;;;5062331;28;20056;-76
2022/06/02 05:34:48;;;;;;;18.95;12.88;;;18.00;99.90;;;;;;5062903;28;20039;-77
2022/06/02 05:37:29;;;;;;;16.15;12.10;;;18.00;99.90;;;;;;5062375;28;20428;-76
2022/06/02 05:39:54;;;;;;;14.73;12.35;;;18.10;99.90;;;;;;5065227;28;20098;-76
2022/06/02 05:42:36;;;;;;;13.55;11.60;;;18.10;99.90;;;;;;5063581;28;20919;-76
2022/06/02 05:45:17;;;;;;;15.85;12.73;;;18.30;99.90;;;;;;5059909;28;20025;-76
2022/06/02 05:48:03;;;;;;;14.57;12.07;;;18.20;99.90;;;;;;5064585;28;20052;-76
2022/06/02 05:50:51;;;;;;;15.77;12.20;;;18.00;99.90;;;;;;5066051;28;20028;-76
2022/06/02 05:53:24;;;;;;;14.13;10.63;;;18.20;99.90;;;;;;5063542;28;20016;-76
2022/06/02 05:56:10;;;;;;;13.68;11.40;;;18.30;99.90;;;;;;5060243;28;20031;-76
2022/06/02 05:58:54;;;;;;;18.27;12.00;;;18.50;99.90;;;;;;5065342;28;20055;-76
2022/06/02 06:01:28;;;;;;;;;;;18.50;99.90;;;;;;5059465;28;20029;-77
2022/06/02 06:04:31;;;;;;;14.88;11.52;;;18.50;99.90;;;;;;5064922;28;19908;-77
2022/06/02 06:07:14;;;;;;;14.23;12.07;;;18.60;99.90;;;;;;5060554;28;20033;-76
2022/06/02 06:09:39;;;;;;;14.35;10.90;;;18.70;99.90;;;;;;5062065;28;20059;-76
2022/06/02 06:12:17;;;;;;;15.50;11.90;;;18.80;99.90;;;;;;5059158;28;20040;-76
2022/06/02 06:15:11;;;;;;;15.05;11.75;;;18.80;99.90;;;;;;5077285;28;20036;-77
2022/06/02 06:18:03;;;;;;;13.90;12.27;;;18.70;99.90;;;;;;5062335;28;20036;-76
2022/06/02 06:20:47;;;;;;;16.20;12.02;;;18.70;99.90;;;;;;5064809;28;20038;-76
2022/06/02 06:23:16;;;;;;;;;;;18.80;99.90;;;;;;5058246;28;20040;-76
2022/06/02 06:25:48;;;;;;;16.02;12.48;;;18.90;99.90;;;;;;5062760;28;19995;-76
2022/06/02 06:28:16;;;;;;;16.63;11.80;;;19.00;99.90;;;;;;5051729;28;20040;-76
2022/06/02 06:31:10;;;;;;;16.70;12.05;;;19.00;99.90;;;;;;5059417;28;20057;-76
2022/06/02 06:34:00;;;;;;;15.52;11.80;;;19.00;99.90;;;;;;5058990;28;20115;-76
2022/06/02 06:37:11;;;;;;;12.98;11.13;;;19.10;99.90;;;;;;5061854;28;20035;-75
2022/06/02 06:39:43;;;;;;;13.90;12.00;;;19.10;99.90;;;;;;5065168;28;20043;-76
2022/06/02 06:42:17;;;;;;;15.90;12.50;;;19.30;99.90;;;;;;5066414;28;20071;-75
2022/06/02 06:44:42;;;;;;;;;;;19.30;99.90;;;;;;5063520;28;20641;-75
2022/06/02 06:47:14;;;;;;;15.75;10.45;;;19.50;99.90;;;;;;5061636;28;19908;-75
2022/06/02 06:50:15;;;;;;;36.72;14.60;;;19.60;99.90;;;;;;5060663;28;20021;-75
2022/06/02 06:52:59;;;;;;;27.00;12.95;;;19.70;99.90;;;;;;5060035;28;20055;-75
2022/06/02 06:55:39;;;;;;;22.30;11.80;;;19.80;99.90;;;;;;5060688;28;20137;-75
2022/06/02 06:58:43;;;;;;;16.80;12.13;;;20.00;99.90;;;;;;5059368;28;20036;-75
2022/06/02 07:01:21;;;;;;;15.73;12.13;;;20.20;99.90;;;;;;4997031;28;20033;-75
2022/06/02 07:04:12;;;;;;;14.02;12.52;;;20.50;99.90;;;;;;4995665;28;20296;-75
2022/06/02 07:06:49;;;;;;;13.93;11.98;;;20.60;99.90;;;;;;5045575;28;20045;-75
2022/06/02 07:09:35;;;;;;;16.85;12.02;;;21.00;99.90;;;;;;5062464;28;20106;-75
2022/06/02 07:15:03;;;;;;;27.95;12.32;;;21.40;99.90;;;;;;5060649;28;20071;-75
2022/06/02 07:17:58;;;;;;;14.52;12.50;;;21.50;99.90;;;;;;5061961;28;20039;-75
2022/06/02 07:20:32;;;;;;;14.30;10.68;;;21.70;99.90;;;;;;5063572;28;20048;-75
2022/06/02 07:22:58;;;;;;;18.33;10.85;;;21.90;99.60;;;;;;5061913;28;20028;-75
2022/06/02 07:25:29;;;;;;;12.48;10.23;;;22.10;99.30;;;;;;5062374;28;20037;-75
2022/06/02 07:28:09;;;;;;;13.40;10.23;;;22.50;99.00;;;;;;5061099;28;20121;-75
2022/06/02 07:30:51;;;;;;;12.23;10.23;;;23.00;98.20;;;;;;5058712;28;20759;-75
2022/06/02 07:33:32;;;;;;;16.70;11.35;;;23.70;96.90;;;;;;5061980;28;20031;-75
2022/06/02 07:36:17;;;;;;;13.18;9.25;;;24.80;96.40;;;;;;5060974;28;20028;-74
2022/06/02 07:39:00;;;;;;;15.65;10.02;;;26.00;94.80;;;;;;5062572;28;20036;-75
2022/06/02 07:42:13;;;;;;;14.23;10.07;;;26.80;93.90;;;;;;5058062;28;20447;-75
2022/06/02 07:44:44;;;;;;;14.00;10.63;;;26.80;92.80;;;;;;5047949;28;20766;-75
2022/06/02 07:47:44;;;;;;;13.60;10.18;;;27.30;92.70;;;;;;5061251;28;20033;-75
2022/06/02 07:50:24;;;;;;;13.10;10.40;;;26.20;92.60;;;;;;5062530;28;20036;-75
2022/06/02 07:53:19;;;;;;;10.05;8.88;;;25.60;93.40;;;;;;5061952;28;20089;-75
2022/06/02 07:56:25;;;;;;;14.25;11.02;;;24.90;94.00;;;;;;5058620;28;20045;-75
2022/06/02 07:58:56;;;;;;;12.27;9.27;;;24.60;94.90;;;;;;5034519;28;20076;-75
2022/06/02 08:01:22;;;;;;;16.50;10.30;;;24.30;94.50;;;;;;5057770;28;20418;-75
2022/06/02 08:04:08;;;;;;;12.63;9.73;;;24.20;94.50;;;;;;5058617;28;20033;-75
2022/06/02 08:06:46;;;;;;;11.07;9.88;;;23.70;94.80;;;;;;5059769;28;20032;-75
2022/06/02 08:09:30;;;;;;;11.98;9.77;;;23.60;95.40;;;;;;5062597;28;20543;-74
2022/06/02 08:12:06;;;;;;;16.33;10.60;;;24.10;95.80;;;;;;5056611;28;20031;-75
2022/06/02 08:14:49;;;;;;;13.18;9.95;;;24.10;95.30;;;;;;5057547;28;20636;-75
2022/06/02 08:17:29;;;;;;;13.10;10.70;;;24.10;95.40;;;;;;5060425;28;20028;-76
2022/06/02 08:20:07;;;;;;;14.02;10.82;;;24.20;95.50;;;;;;5057858;28;20037;-76
2022/06/02 08:22:33;;;;;;;13.77;11.07;;;24.20;95.20;;;;;;5053313;28;20024;-77
2022/06/02 08:25:21;;;;;;;13.63;12.15;;;23.90;95.20;;;;;;5059643;28;20029;-77
2022/06/02 08:28:14;;;;;;;14.82;10.80;;;24.20;94.70;;;;;;5052173;28;20041;-76
2022/06/02 08:30:46;;;;;;;14.83;10.60;;;24.60;94.10;;;;;;5050319;28;20396;-77
2022/06/02 08:33:23;;;;;;;13.43;10.98;;;24.80;94.60;;;;;;5057842;28;20032;-77
2022/06/02 08:35:51;;;;;;;14.48;11.65;;;25.10;94.00;;;;;;5057411;28;20102;-77
2022/06/02 08:38:40;;;;;;;16.30;11.07;;;25.20;93.40;;;;;;5062821;28;20036;-77
2022/06/02 08:41:33;;;;;;;13.82;11.20;;;25.10;93.10;;;;;;5058694;28;20035;-77
2022/06/02 08:44:21;;;;;;;14.93;11.57;;;25.00;93.30;;;;;;5060874;28;20122;-77
2022/06/02 08:47:17;;;;;;;16.48;11.07;;;24.40;94.40;;;;;;5055007;28;20021;-77
2022/06/02 08:49:49;;;;;;;13.57;11.15;;;24.70;94.60;;;;;;5059719;28;20033;-77
2022/06/02 08:52:29;;;;;;;15.20;11.48;;;24.90;94.10;;;;;;5062412;28;20071;-77
2022/06/02 08:55:16;;;;;;;14.30;10.65;;;25.40;93.80;;;;;;5062057;28;20098;-77
2022/06/02 08:58:14;;;;;;;13.38;11.60;;;25.20;93.80;;;;;;5061390;28;20101;-77
2022/06/02 09:01:05;;;;;;;13.52;10.85;;;24.90;93.00;;;;;;5054121;28;20037;-77
2022/06/02 09:03:52;;;;;;;20.60;11.65;;;24.80;93.20;;;;;;5025560;28;20032;-77
2022/06/02 09:06:23;;;;;;;18.08;11.23;;;24.70;93.10;;;;;;5034926;28;20053;-77
2022/06/02 09:08:48;;;;;;;14.80;10.70;;;24.70;93.40;;;;;;5059162;28;20366;-77
2022/06/02 09:11:48;;;;;;;11.85;10.43;;;25.00;94.00;;;;;;5059980;28;20028;-77
2022/06/02 09:14:29;;;;;;;13.70;11.10;;;25.40;93.70;;;;;;5056793;28;20040;-77
2022/06/02 09:17:36;;;;;;;16.15;10.80;;;25.40;93.40;;;;;;5058765;28;20025;-77
2022/06/02 09:20:23;;;;;;;15.13;11.73;;;25.90;93.00;;;;;;5059676;28;20048;-77
2022/06/02 09:23:16;;;;;;;12.65;10.65;;;25.90;93.40;;;;;;5060702;28;20036;-77
2022/06/02 09:26:14;;;;;;;12.85;11.05;;;26.10;93.20;;;;;;5059871;28;20044;-77
2022/06/02 09:28:49;;;;;;;12.98;11.38;;;26.30;93.40;;;;;;5044807;28;20041;-77
2022/06/02 09:31:36;;;;;;;16.02;11.80;;;26.40;92.60;;;;;;5060710;28;20028;-78
2022/06/02 09:34:34;;;;;;;14.48;9.70;;;25.90;92.60;;;;;;5050858;28;20434;-77
2022/06/02 09:37:23;;;;;;;12.25;10.45;;;26.10;92.80;;;;;;5062337;28;20655;-77
2022/06/02 09:40:23;;;;;;;12.57;10.20;;;25.90;92.70;;;;;;5052835;28;20615;-77
2022/06/02 09:42:58;;;;;;;14.75;10.57;;;26.00;92.80;;;;;;5062876;28;20067;-77
2022/06/02 09:45:54;;;;;;;13.07;10.00;;;26.40;92.60;;;;;;5063494;28;20115;-77
2022/06/02 09:48:29;;;;;;;17.63;10.90;;;26.50;93.50;;;;;;5063878;28;20036;-77
2022/06/02 09:51:20;;;;;;;12.30;9.32;;;26.90;92.50;;;;;;5064114;28;20154;-76
2022/06/02 09:53:58;;;;;;;16.92;9.10;;;26.60;92.40;;;;;;5064731;28;20029;-76
2022/06/02 09:56:39;;;;;;;14.25;9.18;;;26.80;93.40;;;;;;5066462;28;20036;-77
2022/06/02 09:59:10;;;;;;;11.50;10.27;;;27.10;92.50;;;;;;5061578;28;20283;-77
2022/06/02 10:02:11;;;;;;;12.05;9.77;;;27.50;92.40;;;;;;5066154;28;20112;-77
2022/06/02 10:04:58;;;;;;;12.20;9.85;;;27.20;92.50;;;;;;5065035;28;20094;-77
2022/06/02 10:07:30;;;;;;;19.40;10.57;;;27.20;92.20;;;;;;5065272;28;20563;-77
2022/06/02 10:10:17;;;;;;;12.98;9.98;;;27.30;91.80;;;;;;5066398;28;20024;-77
2022/06/02 10:13:19;;;;;;;13.68;9.48;;;27.10;92.10;;;;;;5065808;28;20032;-77
2022/06/02 10:16:23;;;;;;;14.52;10.00;;;27.30;92.00;;;;;;5065197;28;20037;-78
2022/06/02 10:19:07;;;;;;;13.70;10.23;;;27.40;91.90;;;;;;5027251;28;20052;-76
2022/06/02 10:22:03;;;;;;;12.57;8.93;;;27.30;92.70;;;;;;5064194;28;20548;-75
2022/06/02 10:24:48;;;;;;;15.85;9.15;;;27.60;92.90;;;;;;5061810;28;20495;-76
2022/06/02 10:27:45;;;;;;;12.02;8.93;;;27.90;92.00;;;;;;5056434;28;20032;-76
2022/06/02 10:30:45;;;;;;;15.43;9.43;;;28.40;92.50;;;;;;5039402;28;20103;-75
2022/06/02 10:33:19;;;;;;;12.18;8.63;;;28.30;92.60;;;;;;5062783;28;20119;-75
2022/06/02 10:36:06;;;;;;;15.48;8.38;;;27.90;92.40;;;;;;5059976;28;20032;-75
2022/06/02 10:38:37;;;;;;;9.55;8.00;;;28.10;91.90;;;;;;5054976;28;20055;-76
2022/06/02 10:41:09;;;;;;;11.38;8.40;;;27.80;92.10;;;;;;5064139;28;20102;-75
2022/06/02 10:43:44;;;;;;;9.13;6.28;;;27.70;92.30;;;;;;5060649;28;20532;-75
2022/06/02 10:46:31;;;;;;;8.98;7.18;;;28.20;91.90;;;;;;5062407;28;20028;-74
2022/06/02 10:49:36;;;;;;;8.48;5.78;;;28.40;91.80;;;;;;5051598;28;20111;-75
2022/06/02 10:52:04;;;;;;;12.10;5.15;;;28.70;91.90;;;;;;5024197;28;20047;-75
2022/06/02 10:54:54;;;;;;;9.13;5.63;;;29.00;91.50;;;;;;5056893;28;20099;-74
2022/06/02 10:57:47;;;;;;;12.00;5.50;;;28.60;90.90;;;;;;5056984;28;20738;-74
2022/06/02 11:00:15;;;;;;;10.18;5.95;;;29.00;90.90;;;;;;5058355;28;20041;-75
2022/06/02 11:03:41;;;;;;;7.97;5.30;;;28.70;90.70;;;;;;5055051;28;20025;-75
2022/06/02 11:06:22;;;;;;;8.23;5.05;;;28.60;90.20;;;;;;5057795;28;20020;-75
2022/06/02 11:09:21;;;;;;;11.45;5.80;;;28.30;90.70;;;;;;5057594;28;20029;-75
2022/06/02 11:12:14;;;;;;;12.70;5.97;;;28.60;90.90;;;;;;5054479;28;20025;-73
2022/06/02 11:14:51;;;;;;;13.45;6.05;;;28.40;90.30;;;;;;5057667;28;20032;-75
2022/06/02 11:17:38;;;;;;;9.30;6.55;;;28.30;90.80;;;;;;5062275;28;20107;-75
2022/06/02 11:20:37;;;;;;;14.57;5.75;;;28.40;91.30;;;;;;5058687;28;20037;-73
2022/06/02 11:23:30;;;;;;;11.77;6.40;;;28.20;91.00;;;;;;5064741;28;20032;-75
2022/06/02 11:26:22;;;;;;;10.25;7.20;;;28.30;91.30;;;;;;5056569;28;20418;-74
2022/06/02 11:29:14;;;;;;;10.90;7.35;;;28.40;91.60;;;;;;5066574;28;20067;-74
2022/06/02 11:32:18;;;;;;;13.10;8.13;;;28.30;91.50;;;;;;5059962;28;20032;-74
2022/06/02 11:35:08;;;;;;;11.82;8.73;;;28.30;92.30;;;;;;5059365;28;20154;-75
2022/06/02 11:38:02;;;;;;;11.15;8.43;;;27.90;92.10;;;;;;5060334;28;20056;-75
2022/06/02 11:41:16;;;;;;;12.48;8.18;;;27.50;92.20;;;;;;5065006;28;20048;-75
2022/06/02 11:44:01;;;;;;;10.82;7.15;;;27.30;92.60;;;;;;5048787;28;20075;-75
2022/06/02 11:46:29;;;;;;;10.73;7.30;;;27.40;92.70;;;;;;5059445;28;20124;-75
2022/06/02 11:49:19;;;;;;;13.15;9.98;;;27.40;92.60;;;;;;5066855;28;20028;-75
2022/06/02 11:52:14;;;;;;;12.00;8.07;;;27.20;92.50;;;;;;5061554;28;21697;-75
2022/06/02 11:54:42;;;;;;;13.43;7.63;;;27.10;92.80;;;;;;5066385;28;20161;-75
2022/06/02 11:57:36;;;;;;;9.68;6.93;;;27.20;92.50;;;;;;5062311;28;20036;-75
2022/06/02 12:00:32;;;;;;;8.60;6.60;;;27.30;92.80;;;;;;5064667;28;20044;-75
2022/06/02 12:03:39;;;;;;;10.90;7.60;;;27.50;92.70;;;;;;5063556;28;20032;-76
2022/06/02 12:06:38;;;;;;;14.27;7.03;;;27.50;92.70;;;;;;5054909;28;20051;-75
2022/06/02 12:09:33;;;;;;;9.50;6.95;;;28.00;92.60;;;;;;5065353;28;20025;-75
2022/06/02 12:12:41;;;;;;;13.07;6.85;;;27.80;92.30;;;;;;5062669;28;20020;-75
2022/06/02 12:15:40;;;;;;;11.73;6.95;;;27.60;92.60;;;;;;5066124;28;20036;-76
2022/06/02 12:18:28;;;;;;;10.90;6.25;;;27.40;92.90;;;;;;5065612;28;20021;-75
2022/06/02 12:21:08;;;;;;;11.40;6.43;;;28.00;92.20;;;;;;5065189;28;20123;-74
2022/06/02 12:23:52;;;;;;;9.68;7.38;;;28.20;92.30;;;;;;5065231;28;20043;-75
2022/06/02 12:26:30;;;;;;;9.63;6.25;;;28.30;92.00;;;;;;5065852;28;22275;-75
2022/06/02 12:29:08;;;;;;;15.50;5.80;;;28.50;91.50;;;;;;5066677;28;20073;-76
2022/06/02 12:31:40;;;;;;;12.38;6.53;;;28.70;91.50;;;;;;5061095;28;20112;-76
2022/06/02 12:34:28;;;;;;;9.57;6.38;;;28.90;91.10;;;;;;5063596;28;20108;-76
2022/06/02 12:37:03;;;;;;;11.07;6.40;;;28.80;91.10;;;;;;5065520;28;20029;-76
2022/06/02 12:39:31;;;;;;;10.80;5.97;;;29.20;91.10;;;;;;5064421;28;20532;-76
2022/06/02 12:42:25;;;;;;;11.75;6.35;;;29.10;90.70;;;;;;5062204;28;20031;-76
2022/06/02 12:45:14;;;;;;;9.93;6.00;;;29.30;90.60;;;;;;5065761;28;20033;-76
2022/06/02 12:47:54;;;;;;;9.95;7.07;;;29.00;90.10;;;;;;5066490;28;20490;-75
2022/06/02 12:50:38;;;;;;;9.30;6.43;;;29.20;90.70;;;;;;5063058;28;20035;-76
2022/06/02 12:53:42;;;;;;;10.60;6.10;;;29.40;90.50;;;;;;5064954;28;20029;-75
2022/06/02 12:56:28;;;;;;;10.25;5.53;;;29.20;90.90;;;;;;4996523;28;20042;-75
2022/06/02 12:59:28;;;;;;;7.38;6.00;;;29.70;91.00;;;;;;4994708;28;20048;-76
2022/06/02 13:02:29;;;;;;;7.78;5.50;;;29.50;90.50;;;;;;5051860;28;20122;-75
2022/06/02 13:05:22;;;;;;;14.77;6.32;;;29.30;89.80;;;;;;5061540;28;20111;-75
2022/06/02 13:08:25;;;;;;;10.70;6.13;;;29.40;89.20;;;;;;5057771;28;20097;-76
2022/06/02 13:11:08;;;;;;;8.70;5.55;;;29.90;89.50;;;;;;5063124;28;20037;-76
2022/06/02 13:13:54;;;;;;;11.65;6.20;;;29.80;89.40;;;;;;5067642;28;20025;-75
2022/06/02 13:16:38;;;;;;;8.55;6.00;;;29.70;89.60;;;;;;5060992;28;20698;-76
2022/06/02 13:19:22;;;;;;;;;;;29.50;88.90;;;;;;5062963;28;20055;-76
2022/06/02 13:22:06;;;;;;;10.20;5.68;;;29.70;89.30;;;;;;5066533;28;19973;-76
2022/06/02 13:25:10;;;;;;;11.27;6.32;;;29.80;88.60;;;;;;5060257;28;20047;-77
2022/06/02 13:28:12;;;;;;;11.70;6.85;;;29.80;88.60;;;;;;5064146;28;20043;-76
2022/06/02 13:31:15;;;;;;;12.65;6.05;;;30.00;90.10;;;;;;5063468;28;20391;-76
2022/06/02 13:33:59;;;;;;;12.85;6.38;;;30.20;90.60;;;;;;5063535;28;20021;-77
2022/06/02 13:36:59;;;;;;;9.70;5.80;;;30.00;88.60;;;;;;5068326;28;20028;-76
2022/06/02 13:39:40;;;;;;;11.38;7.50;;;29.90;89.00;;;;;;5030614;28;20056;-76
2022/06/02 13:42:56;;;;;;;9.30;5.90;;;29.60;89.10;;;;;;5066570;28;20035;-76
2022/06/02 13:45:40;;;;;;;7.70;5.90;;;29.50;89.60;;;;;;5066813;28;20151;-78
2022/06/02 13:48:15;;;;;;;;;;;29.70;89.60;;;;;;5062893;28;20085;-78
2022/06/02 13:51:14;;;;;;;9.27;5.97;;;29.80;88.90;;;;;;5063694;28;19908;-78
2022/06/02 14:00:20;;;;;;;9.60;5.80;;;29.90;88.30;;;;;;5064082;28;20207;-77
2022/06/02 14:02:55;;;;;;;10.38;5.50;;;30.20;88.40;;;;;;5082346;28;20044;-76
2022/06/02 14:05:48;;;;;;;8.57;4.97;;;30.10;88.40;;;;;;5067485;28;20037;-77
2022/06/02 14:08:43;;;;;;;8.43;5.75;;;30.50;89.50;;;;;;5068377;28;20641;-74
2022/06/02 14:11:18;;;;;;;10.70;5.57;;;30.70;89.40;;;;;;5068509;28;20036;-77
2022/06/02 14:14:15;;;;;;;8.73;5.22;;;29.90;88.10;;;;;;5069140;28;20024;-77
2022/06/02 14:17:04;;;;;;;10.95;5.68;;;30.10;88.60;;;;;;5069537;28;20506;-77
2022/06/02 14:19:36;;;;;;;9.13;6.05;;;29.90;88.30;;;;;;5064484;28;20033;-77
2022/06/02 14:22:26;;;;;;;8.68;5.97;;;30.00;88.20;;;;;;5066054;28;20035;-77